Time;durP1;ratioP1;P1;durP2;ratioP2;P2;SDS_P1;SDS_P2;PMS_P1;PMS_P2;Temp;Humidity;BMP_temperature;BMP_pressure;BME280_temperature;BME280_humidity;BME280_pressure;Samples;Min_cycle;Max_cycle;Signal;HPM_P1;HPM_P2
2024/01/30 00:01:58;;;;;;;28.08;25.38;;;9.30;99.90;;;;;;5051514;28;20032;-79
2024/01/30 00:04:23;;;;;;;27.25;24.58;;;9.10;99.90;;;;;;5050762;28;20477;-77
2024/01/30 00:06:52;;;;;;;28.90;25.92;;;9.30;99.90;;;;;;5033414;28;20481;-80
2024/01/30 00:09:18;;;;;;;28.20;25.42;;;9.30;99.90;;;;;;5062585;28;20048;-77
2024/01/30 00:11:44;;;;;;;29.30;26.38;;;8.90;99.90;;;;;;5050255;28;20440;-79
2024/01/30 00:14:09;;;;;;;25.40;22.73;;;8.90;99.90;;;;;;5067329;28;20119;-75
2024/01/30 00:16:35;;;;;;;27.23;24.58;;;9.40;99.90;;;;;;5049725;28;20094;-79
2024/01/30 00:19:02;;;;;;;31.70;28.60;;;9.20;99.90;;;;;;5034145;28;20029;-79
2024/01/30 00:21:27;;;;;;;27.08;24.33;;;9.10;99.90;;;;;;5048151;28;20032;-79
2024/01/30 00:23:53;;;;;;;29.05;26.10;;;9.40;99.90;;;;;;5068661;28;20119;-77
2024/01/30 00:26:19;;;;;;;28.55;25.77;;;9.40;99.90;;;;;;5066988;28;20140;-76
2024/01/30 00:28:44;;;;;;;28.23;25.45;;;9.10;99.90;;;;;;5034285;28;20041;-76
2024/01/30 00:31:13;;;;;;;28.52;25.60;;;9.50;99.90;;;;;;5047905;28;20044;-75
2024/01/30 00:33:39;;;;;;;28.25;25.35;;;9.50;99.90;;;;;;5064040;28;20051;-76
2024/01/30 00:36:09;;;;;;;27.73;24.88;;;9.00;99.90;;;;;;5047993;28;20487;-76
2024/01/30 00:38:35;;;;;;;29.88;26.88;;;9.00;99.90;;;;;;5066224;28;20938;-74
2024/01/30 00:41:01;;;;;;;29.55;26.65;;;9.40;99.90;;;;;;5049697;28;20037;-78
2024/01/30 00:43:27;;;;;;;28.75;25.73;;;9.40;99.90;;;;;;5070628;28;20436;-76
2024/01/30 00:45:54;;;;;;;29.80;26.70;;;9.60;99.90;;;;;;5063267;28;20040;-76
2024/01/30 00:48:20;;;;;;;27.50;24.65;;;9.30;99.90;;;;;;5062888;28;20262;-78
2024/01/30 00:50:46;;;;;;;30.73;27.63;;;9.10;99.90;;;;;;5048250;28;20071;-75
2024/01/30 00:53:11;;;;;;;29.65;26.60;;;9.10;99.90;;;;;;5047059;28;20047;-78
2024/01/30 00:55:37;;;;;;;29.33;26.20;;;9.50;99.90;;;;;;5050804;28;20036;-75
2024/01/30 00:58:03;;;;;;;28.88;25.77;;;9.50;99.90;;;;;;5048346;28;20071;-76
2024/01/30 01:00:29;;;;;;;28.70;25.60;;;9.40;99.90;;;;;;5067410;28;20033;-79
2024/01/30 01:03:04;;;;;;;28.70;25.80;;;9.70;99.90;;;;;;5062929;28;20113;-77
2024/01/30 01:05:29;;;;;;;30.23;27.13;;;9.20;99.90;;;;;;5062553;28;20110;-75
2024/01/30 01:07:55;;;;;;;30.98;27.80;;;9.30;99.90;;;;;;5067002;28;20036;-75
2024/01/30 01:10:20;;;;;;;30.48;27.38;;;9.80;99.90;;;;;;5047252;28;20082;-76
2024/01/30 01:12:47;;;;;;;30.92;27.83;;;9.30;99.90;;;;;;5065434;28;20052;-77
2024/01/30 01:15:13;;;;;;;31.55;28.35;;;9.70;99.90;;;;;;5049674;28;20161;-75
2024/01/30 01:17:40;;;;;;;33.05;29.65;;;9.20;99.90;;;;;;5066454;28;20058;-76
2024/01/30 01:20:06;;;;;;;32.53;28.63;;;9.90;99.90;;;;;;5065520;28;20040;-75
2024/01/30 01:22:32;;;;;;;30.63;27.40;;;10.00;99.90;;;;;;5051153;28;20484;-77
2024/01/30 01:24:59;;;;;;;32.00;28.67;;;9.40;99.90;;;;;;5049587;28;20041;-75
2024/01/30 01:27:24;;;;;;;32.38;29.00;;;10.10;99.90;;;;;;5050913;28;20040;-78
2024/01/30 01:29:51;;;;;;;30.40;27.35;;;9.90;99.90;;;;;;5060686;28;20036;-77
2024/01/30 01:32:16;;;;;;;29.67;26.67;;;10.00;99.90;;;;;;5048573;28;20060;-79
2024/01/30 01:34:42;;;;;;;29.80;26.80;;;9.50;99.90;;;;;;5045814;28;20047;-76
2024/01/30 01:37:08;;;;;;;31.02;27.83;;;9.90;99.90;;;;;;5061742;28;20029;-76
2024/01/30 01:39:34;;;;;;;32.40;28.92;;;9.70;99.90;;;;;;5061847;28;20078;-79
2024/01/30 01:41:59;;;;;;;29.98;26.90;;;9.80;99.90;;;;;;5066213;28;20470;-75
2024/01/30 01:44:25;;;;;;;30.30;27.40;;;9.80;99.90;;;;;;5069741;28;20579;-75
2024/01/30 01:46:52;;;;;;;29.33;26.33;;;9.40;99.90;;;;;;5068297;28;20036;-79
2024/01/30 01:49:19;;;;;;;31.25;28.15;;;10.10;99.90;;;;;;5072741;28;20068;-75
2024/01/30 01:51:47;;;;;;;31.83;28.63;;;10.00;99.90;;;;;;5068844;28;20045;-78
2024/01/30 01:54:14;;;;;;;32.33;27.55;;;10.00;99.90;;;;;;5055960;28;20121;-75
2024/01/30 01:56:40;;;;;;;30.63;27.52;;;9.90;99.90;;;;;;5053381;28;20041;-77
2024/01/30 01:59:08;;;;;;;30.25;27.17;;;10.00;99.90;;;;;;5072821;28;20086;-75
2024/01/30 02:01:35;;;;;;;30.55;27.45;;;9.80;99.90;;;;;;5082275;28;20052;-75
2024/01/30 02:04:01;;;;;;;29.98;26.88;;;9.80;99.90;;;;;;5050568;28;20068;-76
2024/01/30 02:06:27;;;;;;;31.73;28.27;;;9.80;99.90;;;;;;5039791;28;20090;-75
2024/01/30 02:08:54;;;;;;;30.08;27.05;;;9.70;99.90;;;;;;5065999;28;20083;-75
2024/01/30 02:11:22;;;;;;;30.50;27.40;;;9.70;99.90;;;;;;5076960;28;20043;-76
2024/01/30 02:13:47;;;;;;;31.17;27.88;;;9.30;99.90;;;;;;5065362;28;20036;-78
2024/01/30 02:16:13;;;;;;;30.90;27.60;;;9.40;99.90;;;;;;5032321;28;20097;-78
2024/01/30 02:18:43;;;;;;;29.33;26.42;;;9.90;99.90;;;;;;5049926;28;20120;-76
2024/01/30 02:21:09;;;;;;;29.80;26.80;;;9.70;99.90;;;;;;5068791;28;20028;-78
2024/01/30 02:23:34;;;;;;;29.95;26.98;;;9.80;99.90;;;;;;5051939;28;20441;-77
2024/01/30 02:26:00;;;;;;;30.48;27.27;;;9.30;99.90;;;;;;5069255;28;20139;-75
2024/01/30 02:28:30;;;;;;;31.17;27.73;;;9.50;99.90;;;;;;5062495;28;20750;-75
2024/01/30 02:30:55;;;;;;;29.77;26.70;;;9.40;99.90;;;;;;5070520;28;20400;-78
2024/01/30 02:33:22;;;;;;;33.00;27.77;;;9.70;99.90;;;;;;5052834;28;20048;-76
2024/01/30 02:35:48;;;;;;;29.63;26.63;;;10.00;99.90;;;;;;5051423;28;20040;-76
2024/01/30 02:38:16;;;;;;;27.88;25.17;;;9.30;99.90;;;;;;5050480;28;20559;-77
2024/01/30 02:40:41;;;;;;;29.95;26.85;;;9.80;99.90;;;;;;5063438;28;20097;-78
2024/01/30 02:43:07;;;;;;;29.30;26.38;;;10.00;99.90;;;;;;5050040;28;20036;-76
2024/01/30 02:45:33;;;;;;;29.85;26.80;;;10.00;99.90;;;;;;5014347;28;20033;-75
2024/01/30 02:47:58;;;;;;;29.70;26.80;;;9.60;99.90;;;;;;5093119;28;20064;-79
2024/01/30 02:50:24;;;;;;;27.40;24.67;;;9.40;99.90;;;;;;5060460;28;20384;-78
2024/01/30 02:52:50;;;;;;;29.85;26.85;;;10.00;99.90;;;;;;5051456;28;20037;-78
2024/01/30 02:55:17;;;;;;;29.58;26.08;;;9.90;99.90;;;;;;5077128;28;20071;-79
2024/01/30 02:57:43;;;;;;;30.13;27.13;;;9.80;99.90;;;;;;5050132;28;20087;-80
2024/01/30 03:00:10;;;;;;;29.65;26.55;;;9.80;99.90;;;;;;5068263;28;20434;-81
2024/01/30 03:02:36;;;;;;;28.92;25.52;;;9.50;99.90;;;;;;5016708;28;20098;-77
2024/01/30 03:05:03;;;;;;;28.80;25.90;;;9.40;99.90;;;;;;5074083;28;20154;-77
2024/01/30 03:07:29;;;;;;;29.17;26.20;;;9.50;99.90;;;;;;5038476;28;20167;-79
2024/01/30 03:09:55;;;;;;;29.05;26.05;;;10.00;99.90;;;;;;5065829;28;20503;-81
2024/01/30 03:12:21;;;;;;;30.75;26.98;;;9.50;99.90;;;;;;5049208;28;20083;-77
2024/01/30 03:14:47;;;;;;;30.30;27.08;;;9.40;99.90;;;;;;5051769;28;20600;-78
2024/01/30 03:17:13;;;;;;;28.75;25.73;;;9.90;99.90;;;;;;5051039;28;20044;-79
2024/01/30 03:19:39;;;;;;;30.35;26.52;;;9.40;99.90;;;;;;5051491;28;20091;-76
2024/01/30 03:22:04;;;;;;;28.63;25.65;;;10.00;99.90;;;;;;5066554;28;20036;-76
2024/01/30 03:24:30;;;;;;;28.60;25.90;;;9.70;99.90;;;;;;5050662;28;20064;-79
2024/01/30 03:26:56;;;;;;;29.38;26.33;;;10.10;99.90;;;;;;5049151;28;20440;-77
2024/01/30 03:29:22;;;;;;;27.75;25.02;;;9.80;99.90;;;;;;5046702;28;20109;-77
2024/01/30 03:31:47;;;;;;;28.00;25.17;;;10.00;99.90;;;;;;5051110;28;20041;-77
2024/01/30 03:34:13;;;;;;;27.52;24.73;;;10.10;99.90;;;;;;5034540;28;20044;-77
2024/01/30 03:36:39;;;;;;;26.48;23.88;;;9.70;99.90;;;;;;5067259;28;20055;-80
2024/01/30 03:39:06;;;;;;;28.15;25.33;;;10.00;99.90;;;;;;5065060;28;20149;-76
2024/01/30 03:41:31;;;;;;;25.83;23.23;;;9.80;99.90;;;;;;5029535;28;20047;-78
2024/01/30 03:43:57;;;;;;;25.70;23.15;;;9.60;99.90;;;;;;5075577;28;20044;-77
2024/01/30 03:46:23;;;;;;;26.80;24.20;;;9.90;99.90;;;;;;5035611;28;20055;-77
2024/01/30 03:48:49;;;;;;;25.65;22.75;;;9.50;99.90;;;;;;5065567;28;20037;-76
2024/01/30 03:51:15;;;;;;;27.55;24.77;;;9.50;99.90;;;;;;5069032;28;20071;-81
2024/01/30 03:53:42;;;;;;;26.90;24.08;;;10.10;99.90;;;;;;5048408;28;20037;-78
2024/01/30 03:56:08;;;;;;;26.48;23.80;;;9.60;99.90;;;;;;5052611;28;20041;-75
2024/01/30 03:58:34;;;;;;;25.65;23.08;;;10.10;99.90;;;;;;5035796;28;20040;-77
2024/01/30 04:01:00;;;;;;;26.73;23.92;;;10.00;99.90;;;;;;5051168;28;20424;-78
2024/01/30 04:03:26;;;;;;;25.73;23.08;;;9.80;99.90;;;;;;5069149;28;20040;-76
2024/01/30 04:05:52;;;;;;;26.08;23.48;;;9.50;99.90;;;;;;5068320;28;20057;-78
2024/01/30 04:08:18;;;;;;;26.88;24.10;;;10.10;99.90;;;;;;5069012;28;20048;-80
2024/01/30 04:10:44;;;;;;;26.42;23.63;;;9.60;99.90;;;;;;5067491;28;20492;-80
2024/01/30 04:13:10;;;;;;;26.88;23.90;;;10.30;99.90;;;;;;5067362;28;20735;-76
2024/01/30 04:15:36;;;;;;;27.63;24.67;;;9.90;99.90;;;;;;5067623;28;20076;-76
2024/01/30 04:18:02;;;;;;;26.30;23.70;;;9.70;99.90;;;;;;5028690;28;20197;-78
2024/01/30 04:20:27;;;;;;;26.67;23.85;;;9.70;99.90;;;;;;5047799;28;20868;-77
2024/01/30 04:22:53;;;;;;;26.20;23.60;;;9.80;99.90;;;;;;5050121;28;20043;-77
2024/01/30 04:25:19;;;;;;;26.15;23.55;;;10.50;99.90;;;;;;5068409;28;20029;-78
2024/01/30 04:27:44;;;;;;;24.77;22.38;;;10.50;99.90;;;;;;5051593;28;20508;-79
2024/01/30 04:30:10;;;;;;;24.20;21.80;;;10.00;99.90;;;;;;5055738;28;20493;-77
2024/01/30 04:32:37;;;;;;;25.95;22.92;;;10.00;99.90;;;;;;5066329;28;20113;-75
2024/01/30 04:35:03;;;;;;;25.33;22.83;;;10.10;99.90;;;;;;5067375;28;20035;-80
2024/01/30 04:37:28;;;;;;;24.40;21.98;;;10.70;99.90;;;;;;5034458;28;20039;-78
2024/01/30 04:39:54;;;;;;;24.77;22.27;;;10.10;99.90;;;;;;5067379;28;20496;-77
2024/01/30 04:42:20;;;;;;;24.05;21.52;;;10.30;99.90;;;;;;5065132;28;20029;-76
2024/01/30 04:44:46;;;;;;;24.15;21.55;;;10.70;99.90;;;;;;5050674;28;20128;-76
2024/01/30 04:47:11;;;;;;;23.98;21.42;;;11.00;99.90;;;;;;5050980;28;20511;-78
2024/01/30 04:49:40;;;;;;;24.35;21.38;;;10.60;99.90;;;;;;5077688;28;20106;-77
2024/01/30 04:52:06;;;;;;;24.40;21.80;;;10.90;99.90;;;;;;5066551;28;20381;-75
2024/01/30 04:54:33;;;;;;;23.08;20.67;;;10.40;99.90;;;;;;5076387;28;20050;-80
2024/01/30 04:56:58;;;;;;;21.90;19.60;;;10.50;99.90;;;;;;5050446;28;20111;-77
2024/01/30 04:59:24;;;;;;;21.45;19.35;;;10.90;99.90;;;;;;5051153;28;20119;-77
2024/01/30 05:01:50;;;;;;;22.40;19.40;;;11.00;99.90;;;;;;5063966;28;20068;-81
2024/01/30 05:04:16;;;;;;;22.80;20.40;;;10.40;99.90;;;;;;5066975;28;20393;-77
2024/01/30 05:06:42;;;;;;;22.40;20.00;;;10.40;99.90;;;;;;5067801;28;20056;-78
2024/01/30 05:09:08;;;;;;;22.30;20.10;;;10.80;99.90;;;;;;5067254;28;20416;-76
2024/01/30 05:11:41;;;;;;;22.58;20.17;;;10.40;99.90;;;;;;5090552;28;20059;-78
2024/01/30 05:14:07;;;;;;;21.27;19.08;;;10.70;99.90;;;;;;5060600;28;20048;-80
2024/01/30 05:16:32;;;;;;;21.17;19.17;;;11.30;99.90;;;;;;5078156;28;20123;-81
2024/01/30 05:18:58;;;;;;;21.42;19.20;;;11.30;99.90;;;;;;5050389;28;20139;-75
2024/01/30 05:21:24;;;;;;;20.80;18.70;;;11.10;99.90;;;;;;5053002;28;20500;-76
2024/01/30 05:23:50;;;;;;;19.42;17.42;;;11.00;99.90;;;;;;5051697;28;20098;-77
2024/01/30 05:26:16;;;;;;;21.38;17.90;;;11.10;99.90;;;;;;5040997;28;20045;-75
2024/01/30 05:28:42;;;;;;;19.50;17.70;;;10.70;99.90;;;;;;5057384;28;20082;-76
2024/01/30 05:31:08;;;;;;;19.05;17.15;;;10.90;99.90;;;;;;5073988;28;20431;-77
2024/01/30 05:33:33;;;;;;;19.70;17.58;;;11.10;99.90;;;;;;5073556;28;20048;-78
2024/01/30 05:35:59;;;;;;;20.00;17.95;;;10.70;99.90;;;;;;5056953;28;20086;-76
2024/01/30 05:38:25;;;;;;;21.20;18.77;;;10.70;99.90;;;;;;5073992;28;20029;-77
2024/01/30 05:40:50;;;;;;;19.90;17.80;;;10.80;99.90;;;;;;5056913;28;20079;-76
2024/01/30 05:43:16;;;;;;;19.63;17.63;;;11.30;99.90;;;;;;5034589;28;20055;-76
2024/01/30 05:45:42;;;;;;;19.73;17.73;;;11.60;99.90;;;;;;5073875;28;20048;-74
2024/01/30 05:48:07;;;;;;;19.63;17.63;;;10.80;99.90;;;;;;5040396;28;20144;-75
2024/01/30 05:50:33;;;;;;;19.48;17.48;;;10.90;99.90;;;;;;5073555;28;20048;-77
2024/01/30 05:52:59;;;;;;;19.17;17.17;;;10.90;99.90;;;;;;5073192;28;20033;-77
2024/01/30 05:55:24;;;;;;;20.25;17.30;;;11.60;99.90;;;;;;5056025;28;20036;-79
2024/01/30 05:57:52;;;;;;;18.80;16.92;;;11.50;99.90;;;;;;5040122;28;20078;-78
2024/01/30 06:00:18;;;;;;;19.77;17.77;;;10.90;99.90;;;;;;5057652;28;20427;-76
2024/01/30 06:02:43;;;;;;;20.67;18.50;;;11.40;99.90;;;;;;5057317;28;20036;-77
2024/01/30 06:05:09;;;;;;;20.17;18.20;;;10.70;99.90;;;;;;5055334;28;20143;-75
2024/01/30 06:07:35;;;;;;;20.13;17.92;;;10.90;99.90;;;;;;5074213;28;20137;-77
2024/01/30 06:10:01;;;;;;;19.63;17.02;;;10.80;99.90;;;;;;5098311;28;20040;-79
2024/01/30 06:12:28;;;;;;;20.85;18.75;;;10.80;99.90;;;;;;5040978;28;20115;-79
2024/01/30 06:14:56;;;;;;;19.15;17.25;;;11.40;99.90;;;;;;5032631;28;20123;-77
2024/01/30 06:17:23;;;;;;;19.30;17.30;;;10.70;99.90;;;;;;5073860;28;20056;-78
2024/01/30 06:19:48;;;;;;;19.70;17.80;;;10.70;99.90;;;;;;5057291;28;20119;-81
2024/01/30 06:22:15;;;;;;;19.42;17.40;;;11.50;99.90;;;;;;5073287;28;20587;-76
2024/01/30 06:24:41;;;;;;;19.70;16.88;;;10.70;99.90;;;;;;5070210;28;20098;-79
2024/01/30 06:27:06;;;;;;;20.13;18.02;;;11.50;99.90;;;;;;5056280;28;20127;-80
2024/01/30 06:29:32;;;;;;;20.35;18.15;;;11.20;99.90;;;;;;5040631;28;20040;-74
2024/01/30 06:31:58;;;;;;;18.60;16.70;;;11.50;99.90;;;;;;5073022;28;20393;-79
2024/01/30 06:34:23;;;;;;;18.10;16.40;;;11.10;99.90;;;;;;5051634;28;20040;-78
2024/01/30 06:36:50;;;;;;;19.00;17.00;;;10.70;99.90;;;;;;5069985;28;20053;-77
2024/01/30 06:39:16;;;;;;;18.73;16.80;;;11.70;99.90;;;;;;5067999;28;20070;-76
2024/01/30 06:41:42;;;;;;;18.33;16.42;;;11.30;99.90;;;;;;5049356;28;20028;-75
2024/01/30 06:44:08;;;;;;;18.75;16.85;;;11.50;99.90;;;;;;5053302;28;20036;-75
2024/01/30 06:46:34;;;;;;;19.23;17.23;;;11.40;99.90;;;;;;5070250;28;20060;-76
2024/01/30 06:48:59;;;;;;;18.77;16.88;;;10.80;99.90;;;;;;5078898;28;20560;-77
2024/01/30 06:51:25;;;;;;;19.60;17.67;;;10.90;99.90;;;;;;5035090;28;20060;-78
2024/01/30 06:53:51;;;;;;;19.23;17.27;;;10.80;99.90;;;;;;5093591;28;20124;-81
2024/01/30 06:56:20;;;;;;;18.33;16.48;;;11.20;99.90;;;;;;5069646;28;20115;-80
2024/01/30 06:58:47;;;;;;;19.90;16.70;;;11.00;99.90;;;;;;5054543;28;20042;-81
2024/01/30 07:01:13;;;;;;;17.92;16.20;;;11.00;99.90;;;;;;5018857;28;20043;-79
2024/01/30 07:03:39;;;;;;;18.23;16.33;;;11.30;99.90;;;;;;5051594;28;20462;-82
2024/01/30 07:06:05;;;;;;;18.00;16.08;;;11.40;99.90;;;;;;5050296;28;20044;-77
2024/01/30 07:08:31;;;;;;;20.08;17.77;;;10.90;99.90;;;;;;5052508;28;20107;-80
2024/01/30 07:10:56;;;;;;;17.90;15.93;;;11.60;99.90;;;;;;5051395;28;20033;-71
2024/01/30 07:13:22;;;;;;;18.25;16.35;;;11.70;99.90;;;;;;5063439;28;20040;-74
2024/01/30 07:15:48;;;;;;;19.08;17.15;;;11.60;99.90;;;;;;5067905;28;20466;-76
2024/01/30 07:18:13;;;;;;;18.15;16.00;;;10.90;99.90;;;;;;5018153;28;20043;-76
2024/01/30 07:20:46;;;;;;;18.60;16.70;;;11.70;99.90;;;;;;5069379;28;20040;-76
2024/01/30 07:23:17;;;;;;;18.70;16.90;;;11.50;99.90;;;;;;5049395;28;20043;-76
2024/01/30 07:25:44;;;;;;;18.55;16.65;;;11.00;99.90;;;;;;5050431;28;20123;-76
2024/01/30 07:28:10;;;;;;;18.77;16.85;;;10.90;99.90;;;;;;5093220;28;20103;-79
2024/01/30 07:30:37;;;;;;;18.30;16.50;;;11.80;99.90;;;;;;5069415;28;20377;-78
2024/01/30 07:33:03;;;;;;;19.05;16.25;;;11.60;99.90;;;;;;5065574;28;20055;-79
2024/01/30 07:35:29;;;;;;;21.10;15.68;;;11.30;99.90;;;;;;5035979;28;20044;-76
2024/01/30 07:37:55;;;;;;;18.50;16.80;;;11.10;99.90;;;;;;5069162;28;20043;-75
2024/01/30 07:40:20;;;;;;;19.75;17.75;;;11.50;99.90;;;;;;5068400;28;20038;-77
2024/01/30 07:42:48;;;;;;;18.80;16.98;;;11.10;99.90;;;;;;5052869;28;20075;-78
2024/01/30 07:45:13;;;;;;;18.60;16.60;;;11.30;99.90;;;;;;5066120;28;20043;-77
2024/01/30 07:47:39;;;;;;;21.83;17.42;;;11.80;99.90;;;;;;5067297;28;20040;-78
2024/01/30 07:50:05;;;;;;;19.67;17.63;;;11.00;99.90;;;;;;5068584;28;20045;-79
2024/01/30 07:52:31;;;;;;;19.00;17.17;;;11.00;99.90;;;;;;5068956;28;20417;-77
2024/01/30 07:54:57;;;;;;;18.98;17.08;;;11.40;99.90;;;;;;5068601;28;20047;-77
2024/01/30 07:57:22;;;;;;;19.67;17.67;;;11.10;99.90;;;;;;5033444;28;20072;-77
2024/01/30 07:59:48;;;;;;;19.02;17.05;;;11.20;99.90;;;;;;5069523;28;20485;-77
2024/01/30 08:02:13;;;;;;;19.80;17.45;;;11.40;99.90;;;;;;5048749;28;20040;-78
2024/01/30 08:04:40;;;;;;;19.00;16.95;;;11.30;99.90;;;;;;5067095;28;20668;-78
2024/01/30 08:07:05;;;;;;;18.63;16.73;;;11.90;99.90;;;;;;5067539;28;20036;-77
2024/01/30 08:09:31;;;;;;;18.55;16.65;;;11.20;99.90;;;;;;5056573;28;20799;-77
2024/01/30 08:11:57;;;;;;;19.67;17.75;;;11.70;99.90;;;;;;5051763;28;20044;-81
2024/01/30 08:14:22;;;;;;;19.95;18.05;;;11.20;99.90;;;;;;5033832;28;20052;-78
2024/01/30 08:16:48;;;;;;;18.90;16.83;;;11.90;99.90;;;;;;5067811;28;20123;-77
2024/01/30 08:19:15;;;;;;;18.48;16.67;;;11.90;99.90;;;;;;5033692;28;20579;-77
2024/01/30 08:21:41;;;;;;;18.67;16.98;;;11.60;99.90;;;;;;5068766;28;20044;-77
2024/01/30 08:24:07;;;;;;;19.27;17.20;;;11.20;99.90;;;;;;5032918;28;20036;-78
2024/01/30 08:26:33;;;;;;;18.92;16.92;;;11.20;99.90;;;;;;5049035;28;20417;-78
2024/01/30 08:28:59;;;;;;;19.00;17.10;;;11.30;99.90;;;;;;5097490;27;20485;-78
2024/01/30 08:31:25;;;;;;;19.27;16.58;;;11.20;99.90;;;;;;5067236;28;20047;-76
2024/01/30 08:33:51;;;;;;;18.80;16.83;;;11.20;99.90;;;;;;5051081;28;20036;-77
2024/01/30 08:36:17;;;;;;;19.80;17.05;;;12.00;99.90;;;;;;5063135;28;20032;-80
2024/01/30 08:38:43;;;;;;;20.10;17.13;;;11.70;99.90;;;;;;5050650;28;20041;-80
2024/01/30 08:41:08;;;;;;;19.05;17.05;;;11.70;99.90;;;;;;5051271;28;20032;-78
2024/01/30 08:43:34;;;;;;;18.35;16.45;;;12.00;99.90;;;;;;5067950;28;20123;-77
2024/01/30 08:46:00;;;;;;;17.58;15.73;;;12.10;99.90;;;;;;5033150;28;20106;-78
2024/01/30 08:48:26;;;;;;;17.67;15.90;;;11.40;99.90;;;;;;5050615;28;20485;-79
2024/01/30 08:50:52;;;;;;;18.40;16.50;;;11.60;99.90;;;;;;5065973;28;20080;-77
2024/01/30 08:53:18;;;;;;;17.88;16.08;;;12.10;99.90;;;;;;5025992;28;20495;-76
2024/01/30 08:55:44;;;;;;;17.83;16.02;;;11.80;99.90;;;;;;5067181;28;20048;-78
2024/01/30 08:58:10;;;;;;;17.92;15.88;;;11.90;99.90;;;;;;5050576;28;20036;-79
2024/01/30 09:00:36;;;;;;;17.73;15.93;;;12.00;99.90;;;;;;5067486;28;20038;-77
2024/01/30 09:03:02;;;;;;;16.10;14.45;;;11.70;99.90;;;;;;5034113;28;20040;-80
2024/01/30 09:05:28;;;;;;;17.38;14.95;;;12.10;99.90;;;;;;5050899;28;20436;-78
2024/01/30 09:07:54;;;;;;;16.73;14.80;;;12.60;99.90;;;;;;5050916;28;20040;-79
2024/01/30 09:10:20;;;;;;;19.80;16.25;;;12.20;99.90;;;;;;5050351;28;20106;-80
2024/01/30 09:12:46;;;;;;;15.68;14.07;;;12.40;99.90;;;;;;5050543;28;20040;-78
2024/01/30 09:15:12;;;;;;;17.40;15.60;;;12.40;99.90;;;;;;5064569;28;20609;-79
2024/01/30 09:17:38;;;;;;;17.15;15.05;;;12.20;99.90;;;;;;5024680;28;20036;-79
2024/01/30 09:20:04;;;;;;;18.13;15.40;;;12.60;99.90;;;;;;5019876;28;20044;-79
2024/01/30 09:22:31;;;;;;;16.38;14.75;;;12.30;99.90;;;;;;5034206;28;20067;-80
2024/01/30 09:24:57;;;;;;;17.42;15.73;;;11.90;99.90;;;;;;5044508;28;20063;-77
2024/01/30 09:27:23;;;;;;;16.92;14.73;;;12.10;99.90;;;;;;5012428;28;20373;-77
2024/01/30 09:29:48;;;;;;;16.17;14.52;;;12.90;99.90;;;;;;5064978;28;20128;-79
2024/01/30 09:32:14;;;;;;;16.55;14.63;;;12.20;99.90;;;;;;5063171;28;20045;-80
2024/01/30 09:34:40;;;;;;;17.13;14.43;;;12.30;99.90;;;;;;5051335;28;20127;-77
2024/01/30 09:37:05;;;;;;;15.40;13.82;;;12.40;99.90;;;;;;5084874;28;20408;-77
2024/01/30 09:39:31;;;;;;;15.95;14.32;;;12.30;99.90;;;;;;5034618;28;20051;-80
2024/01/30 09:42:25;;;;;;;16.17;13.90;;;13.30;99.90;;;;;;5041554;28;20041;-77
2024/01/30 09:44:53;;;;;;;15.77;14.15;;;13.30;99.90;;;;;;5044187;28;20041;-80
2024/01/30 09:47:18;;;;;;;17.23;14.43;;;13.40;99.90;;;;;;5067898;28;20044;-78
2024/01/30 09:49:45;;;;;;;16.20;14.27;;;12.60;99.90;;;;;;5068200;28;20492;-80
2024/01/30 09:52:11;;;;;;;15.00;13.48;;;13.10;99.90;;;;;;5061458;28;20131;-79
2024/01/30 09:54:38;;;;;;;17.23;14.00;;;12.70;99.90;;;;;;5034872;28;20058;-80
2024/01/30 09:57:04;;;;;;;15.65;13.20;;;13.20;99.90;;;;;;5030484;28;20090;-79
2024/01/30 09:59:31;;;;;;;15.23;12.85;;;12.90;99.90;;;;;;5030896;28;20048;-79
2024/01/30 10:01:57;;;;;;;16.52;13.48;;;12.90;99.90;;;;;;5035466;28;20041;-80
2024/01/30 10:04:23;;;;;;;15.82;13.10;;;13.60;99.90;;;;;;5067890;28;20377;-81
2024/01/30 10:06:50;;;;;;;16.67;13.50;;;13.80;99.90;;;;;;5051279;28;20079;-79
2024/01/30 10:09:16;;;;;;;14.25;12.82;;;13.90;99.90;;;;;;5070941;28;20075;-80
2024/01/30 10:11:42;;;;;;;14.20;12.77;;;14.10;99.90;;;;;;5071922;28;20079;-78
2024/01/30 10:14:08;;;;;;;15.18;13.40;;;14.00;99.90;;;;;;5034684;28;20049;-78
2024/01/30 10:16:35;;;;;;;16.50;13.43;;;14.10;99.90;;;;;;5067355;28;20076;-81
2024/01/30 10:19:00;;;;;;;15.02;13.45;;;13.10;99.90;;;;;;5071389;28;20041;-80
2024/01/30 10:21:26;;;;;;;16.27;13.70;;;14.10;99.90;;;;;;5037343;28;20041;-82
2024/01/30 10:23:52;;;;;;;15.07;13.32;;;13.90;99.90;;;;;;5036557;28;20040;-78
2024/01/30 10:26:18;;;;;;;15.68;13.02;;;13.50;99.90;;;;;;5053992;28;20028;-80
2024/01/30 10:28:44;;;;;;;15.35;13.27;;;14.10;99.90;;;;;;5054347;28;20124;-82
2024/01/30 10:31:10;;;;;;;14.45;12.65;;;14.30;99.90;;;;;;5028614;28;20124;-80
2024/01/30 10:33:36;;;;;;;17.50;14.05;;;14.40;99.90;;;;;;5067159;28;20487;-79
2024/01/30 10:36:03;;;;;;;18.52;13.40;;;14.40;99.90;;;;;;5059649;28;20040;-78
2024/01/30 10:38:30;;;;;;;15.43;12.73;;;14.20;99.90;;;;;;5057526;28;20037;-80
2024/01/30 10:41:02;;;;;;;18.85;12.32;;;14.40;99.90;;;;;;5051946;28;20464;-78
2024/01/30 10:43:35;;;;;;;16.08;12.93;;;13.70;99.90;;;;;;5050667;28;20090;-80
2024/01/30 10:46:22;;;;;;;14.27;12.77;;;14.20;99.90;;;;;;5035370;28;20060;-81
2024/01/30 10:48:57;;;;;;;14.75;12.75;;;14.30;99.90;;;;;;5054216;28;20045;-82
2024/01/30 10:51:23;;;;;;;15.70;12.93;;;14.00;99.90;;;;;;5065398;28;20494;-81
2024/01/30 10:53:50;;;;;;;16.52;12.65;;;14.40;99.90;;;;;;5051354;28;20355;-78
2024/01/30 10:56:16;;;;;;;16.20;13.82;;;13.80;99.90;;;;;;5050560;28;20049;-81
2024/01/30 10:58:42;;;;;;;17.98;12.82;;;14.50;99.90;;;;;;5053733;28;20085;-80
2024/01/30 11:01:09;;;;;;;17.70;12.82;;;14.60;99.90;;;;;;5053698;28;20119;-81
2024/01/30 11:03:38;;;;;;;15.85;13.30;;;14.30;99.90;;;;;;5053832;28;20041;-79
2024/01/30 11:06:04;;;;;;;14.75;13.20;;;14.30;99.90;;;;;;5054065;28;20135;-80
2024/01/30 11:08:32;;;;;;;17.38;12.88;;;14.60;99.90;;;;;;5053370;28;20071;-80
2024/01/30 11:10:58;;;;;;;17.85;13.50;;;14.50;99.90;;;;;;5043682;28;20765;-79
2024/01/30 11:13:31;;;;;;;18.70;14.43;;;14.10;99.90;;;;;;5066925;28;20083;-80
2024/01/30 11:16:04;;;;;;;16.25;13.50;;;14.30;99.90;;;;;;5066677;28;20482;-81
2024/01/30 11:18:31;;;;;;;16.63;13.57;;;13.70;99.90;;;;;;5051625;28;20120;-80
2024/01/30 11:20:58;;;;;;;14.68;13.15;;;14.60;99.90;;;;;;5045621;28;20071;-80
2024/01/30 11:23:26;;;;;;;16.85;13.38;;;14.60;99.90;;;;;;5033645;28;20033;-83
2024/01/30 11:25:53;;;;;;;16.00;14.10;;;14.40;99.90;;;;;;5050626;28;20477;-79
2024/01/30 11:28:20;;;;;;;15.18;12.98;;;14.00;99.90;;;;;;5055553;28;20041;-81
2024/01/30 11:30:47;;;;;;;15.75;13.20;;;13.70;99.90;;;;;;5052162;28;20040;-83
2024/01/30 11:33:15;;;;;;;21.70;14.73;;;13.70;99.90;;;;;;5037711;28;20161;-81
2024/01/30 11:35:42;;;;;;;16.27;13.43;;;14.60;99.90;;;;;;5053218;28;20072;-82
2024/01/30 11:38:09;;;;;;;16.80;13.23;;;13.90;99.90;;;;;;5070254;28;20123;-81
2024/01/30 11:40:37;;;;;;;16.98;13.52;;;13.80;99.90;;;;;;5053351;28;20412;-81
2024/01/30 11:43:04;;;;;;;17.30;13.63;;;13.80;99.90;;;;;;5054173;28;20033;-82
2024/01/30 11:45:31;;;;;;;21.15;12.80;;;14.50;99.90;;;;;;5033292;28;20040;-80
2024/01/30 11:48:00;;;;;;;15.30;11.70;;;14.40;99.90;;;;;;5032377;28;20049;-80
2024/01/30 11:50:26;;;;;;;16.35;11.02;;;14.00;99.90;;;;;;5048744;28;20106;-81
2024/01/30 11:52:51;;;;;;;14.43;10.18;;;14.40;99.90;;;;;;5057255;28;20136;-81
2024/01/30 11:55:18;;;;;;;12.93;9.10;;;14.30;99.90;;;;;;5066261;28;20132;-82
2024/01/30 11:57:44;;;;;;;15.60;8.40;;;14.30;99.90;;;;;;5016487;28;20063;-82
2024/01/30 12:00:19;;;;;;;17.83;8.55;;;13.50;99.90;;;;;;5025494;28;20045;-80
2024/01/30 12:02:50;;;;;;;10.45;6.47;;;14.00;99.90;;;;;;5059962;28;20045;-83
2024/01/30 12:05:15;;;;;;;9.02;5.07;;;14.00;99.90;;;;;;5049604;28;20048;-80
2024/01/30 12:07:44;;;;;;;10.52;5.07;;;13.60;99.90;;;;;;5065614;28;20067;-80
2024/01/30 12:10:13;;;;;;;7.53;4.53;;;14.10;99.90;;;;;;5066845;28;20041;-82
2024/01/30 12:12:41;;;;;;;7.75;4.03;;;13.50;99.90;;;;;;5065144;28;20063;-79
2024/01/30 12:15:07;;;;;;;8.07;4.50;;;13.40;99.90;;;;;;5032703;28;20076;-80
2024/01/30 12:17:37;;;;;;;6.68;3.70;;;13.40;99.90;;;;;;5045710;28;20058;-80
2024/01/30 12:20:13;;;;;;;7.03;3.47;;;13.60;99.90;;;;;;5052183;28;20036;-83
2024/01/30 12:22:41;;;;;;;8.57;3.28;;;13.90;99.90;;;;;;5068393;28;20064;-80
2024/01/30 12:25:10;;;;;;;6.25;3.13;;;13.70;99.90;;;;;;5052428;28;20044;-83
2024/01/30 12:27:37;;;;;;;4.53;2.92;;;13.60;99.90;;;;;;5031361;28;20045;-83